Main page
METAR-TAF:

METAR-TAF

Airports :

Nome Airport

Nome, Alaska, United States

latitude: 64-30-43N, longitude: 165-26-42W, elevation: 11 m

Current weather observation

The report was made 31 minutes ago, at 12:53 UTC
Wind 3 kt from the North
Temperature -25°C
Humidity 76%
Pressure 1025 hPa
Visibility: 16.1 km
Clear sky

METAR: PAOM 241253Z AUTO 36003KT 10SM CLR M25/M28 A3027 RMK AO2 SLP253 T12501283 TSNO CHINO NE $

Time: 04:24 (13:24 UTC)

Forecast

The report was made 2 hours and 4 minutes ago, at 11:20 UTC
Forecast valid from 24 at 12 UTC to 25 at 12 UTC
Wind 6 kt from the North
Visibility: 10 km
Clear sky

TAF: PAOM 241120Z 2412/2512 36006KT P6SM SKC

Weather observations and forecasts of more than 4000 airports (METAR and TAF reports).

The available stations are represented by yellow and red dots on the map.

Hover mouse over dot to see the name of the station.

Then click to see weather observations and forecasts.

To change the map : click on the green buttons with a black cross to zoom in, on the green button with a dash to zoom out, or on the green arrows for adjacent maps.


METAR-TAF: